sensor_id;sensor_type;location;lat;lon;timestamp;pressure;altitude;pressure_sealevel;temperature;humidity
6506;BME280;3286;49.858;8.768;2023-04-27T00:00:09;99380.31;;;8.26;51.51
6506;BME280;3286;49.858;8.768;2023-04-27T00:02:37;99376.28;;;8.22;51.32
6506;BME280;3286;49.858;8.768;2023-04-27T00:05:05;99378.63;;;8.25;51.82
6506;BME280;3286;49.858;8.768;2023-04-27T00:07:33;99375.78;;;8.38;51.16
6506;BME280;3286;49.858;8.768;2023-04-27T00:09:59;99379.44;;;7.94;51.87
6506;BME280;3286;49.858;8.768;2023-04-27T00:12:26;99372.78;;;8.43;50.86
6506;BME280;3286;49.858;8.768;2023-04-27T00:14:53;99375.47;;;8.52;50.80
6506;BME280;3286;49.858;8.768;2023-04-27T00:17:19;99372.66;;;8.23;51.56
6506;BME280;3286;49.858;8.768;2023-04-27T00:19:46;99367.88;;;8.07;52.23
6506;BME280;3286;49.858;8.768;2023-04-27T00:22:12;99367.06;;;7.31;54.25
6506;BME280;3286;49.858;8.768;2023-04-27T00:24:40;99367.25;;;7.93;52.33
6506;BME280;3286;49.858;8.768;2023-04-27T00:27:07;99357.38;;;8.38;51.62
6506;BME280;3286;49.858;8.768;2023-04-27T00:29:33;99360.13;;;8.05;52.61
6506;BME280;3286;49.858;8.768;2023-04-27T00:32:00;99362.50;;;7.87;51.65
6506;BME280;3286;49.858;8.768;2023-04-27T00:34:27;99360.66;;;7.78;52.17
6506;BME280;3286;49.858;8.768;2023-04-27T00:36:53;99356.91;;;8.02;50.76
6506;BME280;3286;49.858;8.768;2023-04-27T00:39:20;99346.44;;;8.11;50.18
6506;BME280;3286;49.858;8.768;2023-04-27T00:41:48;99353.00;;;8.17;51.45
6506;BME280;3286;49.858;8.768;2023-04-27T00:44:21;99348.91;;;7.82;52.49
6506;BME280;3286;49.858;8.768;2023-04-27T00:46:48;99357.19;;;7.98;52.04
6506;BME280;3286;49.858;8.768;2023-04-27T00:49:15;99351.31;;;7.95;51.78
6506;BME280;3286;49.858;8.768;2023-04-27T00:51:43;99356.38;;;7.44;53.48
6506;BME280;3286;49.858;8.768;2023-04-27T00:54:09;99344.88;;;7.78;51.62
6506;BME280;3286;49.858;8.768;2023-04-27T00:56:37;99339.41;;;7.91;51.06
6506;BME280;3286;49.858;8.768;2023-04-27T00:59:05;99341.19;;;8.11;50.53
6506;BME280;3286;49.858;8.768;2023-04-27T01:01:31;99349.47;;;7.43;52.73
6506;BME280;3286;49.858;8.768;2023-04-27T01:03:58;99342.78;;;6.62;55.01
6506;BME280;3286;49.858;8.768;2023-04-27T01:06:25;99357.69;;;7.50;53.02
6506;BME280;3286;49.858;8.768;2023-04-27T01:08:54;99353.78;;;7.12;53.53
6506;BME280;3286;49.858;8.768;2023-04-27T01:11:20;99355.06;;;6.50;54.91
6506;BME280;3286;49.858;8.768;2023-04-27T01:13:47;99362.03;;;7.39;52.25
6506;BME280;3286;49.858;8.768;2023-04-27T01:16:17;99366.31;;;7.08;52.96
6506;BME280;3286;49.858;8.768;2023-04-27T01:18:43;99366.63;;;7.26;53.22
6506;BME280;3286;49.858;8.768;2023-04-27T01:21:11;99365.50;;;7.07;54.02
6506;BME280;3286;49.858;8.768;2023-04-27T01:23:39;99364.25;;;7.23;52.74
6506;BME280;3286;49.858;8.768;2023-04-27T01:26:05;99371.78;;;6.38;55.06
6506;BME280;3286;49.858;8.768;2023-04-27T01:28:32;99372.25;;;6.43;54.88
6506;BME280;3286;49.858;8.768;2023-04-27T01:30:58;99370.81;;;6.62;54.54
6506;BME280;3286;49.858;8.768;2023-04-27T01:33:25;99372.38;;;7.20;52.63
6506;BME280;3286;49.858;8.768;2023-04-27T01:35:52;99376.78;;;6.41;54.75
6506;BME280;3286;49.858;8.768;2023-04-27T01:38:18;99377.72;;;6.74;53.36
6506;BME280;3286;49.858;8.768;2023-04-27T01:40:46;99368.78;;;6.20;55.12
6506;BME280;3286;49.858;8.768;2023-04-27T01:43:13;99374.78;;;6.45;54.63
6506;BME280;3286;49.858;8.768;2023-04-27T01:45:39;99372.00;;;6.46;54.21
6506;BME280;3286;49.858;8.768;2023-04-27T01:48:06;99378.16;;;6.00;55.32
6506;BME280;3286;49.858;8.768;2023-04-27T01:50:32;99385.38;;;6.32;54.47
6506;BME280;3286;49.858;8.768;2023-04-27T01:52:59;99382.16;;;6.74;53.68
6506;BME280;3286;49.858;8.768;2023-04-27T01:55:26;99389.44;;;6.25;54.63
6506;BME280;3286;49.858;8.768;2023-04-27T01:57:54;99390.53;;;5.98;55.31
6506;BME280;3286;49.858;8.768;2023-04-27T02:00:20;99387.63;;;6.25;54.53
6506;BME280;3286;49.858;8.768;2023-04-27T02:02:47;99398.81;;;5.44;56.64
6506;BME280;3286;49.858;8.768;2023-04-27T02:05:15;99396.56;;;5.75;56.61
6506;BME280;3286;49.858;8.768;2023-04-27T02:07:41;99394.91;;;6.21;55.28
6506;BME280;3286;49.858;8.768;2023-04-27T02:10:09;99396.72;;;6.44;54.52
6506;BME280;3286;49.858;8.768;2023-04-27T02:12:35;99398.13;;;6.25;55.25
6506;BME280;3286;49.858;8.768;2023-04-27T02:15:05;99387.88;;;6.22;54.27
6506;BME280;3286;49.858;8.768;2023-04-27T02:17:32;99397.53;;;6.21;54.96
6506;BME280;3286;49.858;8.768;2023-04-27T02:19:59;99397.34;;;6.00;54.89
6506;BME280;3286;49.858;8.768;2023-04-27T02:22:26;99387.88;;;6.45;54.15
6506;BME280;3286;49.858;8.768;2023-04-27T02:24:52;99401.16;;;5.96;55.06
6506;BME280;3286;49.858;8.768;2023-04-27T02:27:19;99396.44;;;6.01;54.26
6506;BME280;3286;49.858;8.768;2023-04-27T02:29:46;99401.06;;;6.09;54.73
6506;BME280;3286;49.858;8.768;2023-04-27T02:32:14;99399.69;;;6.16;54.18
6506;BME280;3286;49.858;8.768;2023-04-27T02:34:40;99398.03;;;5.91;54.71
6506;BME280;3286;49.858;8.768;2023-04-27T02:37:07;99403.31;;;5.66;55.12
6506;BME280;3286;49.858;8.768;2023-04-27T02:39:34;99402.66;;;5.76;54.82
6506;BME280;3286;49.858;8.768;2023-04-27T02:42:00;99403.91;;;5.34;55.63
6506;BME280;3286;49.858;8.768;2023-04-27T02:44:28;99410.88;;;5.47;55.64
6506;BME280;3286;49.858;8.768;2023-04-27T02:46:54;99411.47;;;5.50;54.96
6506;BME280;3286;49.858;8.768;2023-04-27T02:49:22;99407.13;;;5.98;54.44
6506;BME280;3286;49.858;8.768;2023-04-27T02:51:49;99418.91;;;5.57;54.59
6506;BME280;3286;49.858;8.768;2023-04-27T02:54:16;99414.25;;;5.60;54.31
6506;BME280;3286;49.858;8.768;2023-04-27T02:56:42;99419.72;;;5.57;55.21
6506;BME280;3286;49.858;8.768;2023-04-27T02:59:09;99417.78;;;5.48;54.98
6506;BME280;3286;49.858;8.768;2023-04-27T03:01:35;99412.16;;;5.17;55.51
6506;BME280;3286;49.858;8.768;2023-04-27T03:04:02;99412.56;;;5.24;54.81
6506;BME280;3286;49.858;8.768;2023-04-27T03:06:30;99412.16;;;5.41;55.47
6506;BME280;3286;49.858;8.768;2023-04-27T03:08:57;99410.31;;;5.55;54.64
6506;BME280;3286;49.858;8.768;2023-04-27T03:11:23;99401.22;;;5.23;55.78
6506;BME280;3286;49.858;8.768;2023-04-27T03:13:50;99390.84;;;5.82;53.99
6506;BME280;3286;49.858;8.768;2023-04-27T03:16:17;99401.38;;;5.57;54.32
6506;BME280;3286;49.858;8.768;2023-04-27T03:18:43;99401.00;;;5.50;54.39
6506;BME280;3286;49.858;8.768;2023-04-27T03:21:10;99404.06;;;5.44;54.50
6506;BME280;3286;49.858;8.768;2023-04-27T03:23:39;99408.94;;;5.13;55.62
6506;BME280;3286;49.858;8.768;2023-04-27T03:26:05;99402.03;;;5.72;54.25
6506;BME280;3286;49.858;8.768;2023-04-27T03:28:32;99400.94;;;4.77;55.77
6506;BME280;3286;49.858;8.768;2023-04-27T03:30:59;99396.22;;;5.20;56.08
6506;BME280;3286;49.858;8.768;2023-04-27T03:33:26;99405.75;;;5.21;55.86
6506;BME280;3286;49.858;8.768;2023-04-27T03:35:54;99418.44;;;4.77;56.41
6506;BME280;3286;49.858;8.768;2023-04-27T03:38:22;99413.25;;;5.01;56.17
6506;BME280;3286;49.858;8.768;2023-04-27T03:40:50;99411.06;;;4.45;57.25
6506;BME280;3286;49.858;8.768;2023-04-27T03:43:17;99412.84;;;4.95;56.51
6506;BME280;3286;49.858;8.768;2023-04-27T03:45:44;99403.69;;;5.13;55.94
6506;BME280;3286;49.858;8.768;2023-04-27T03:48:10;99395.59;;;4.92;56.03
6506;BME280;3286;49.858;8.768;2023-04-27T03:50:37;99389.03;;;5.35;54.67
6506;BME280;3286;49.858;8.768;2023-04-27T03:53:04;99379.41;;;5.35;54.92
6506;BME280;3286;49.858;8.768;2023-04-27T03:55:31;99390.38;;;5.16;55.20
6506;BME280;3286;49.858;8.768;2023-04-27T03:57:59;99394.28;;;4.98;55.55
6506;BME280;3286;49.858;8.768;2023-04-27T04:00:25;99394.50;;;5.68;54.95
6506;BME280;3286;49.858;8.768;2023-04-27T04:02:52;99394.78;;;4.78;56.98
6506;BME280;3286;49.858;8.768;2023-04-27T04:05:19;99406.63;;;4.71;56.50
6506;BME280;3286;49.858;8.768;2023-04-27T04:07:45;99399.91;;;5.42;56.15
6506;BME280;3286;49.858;8.768;2023-04-27T04:10:12;99407.16;;;5.01;56.54
6506;BME280;3286;49.858;8.768;2023-04-27T04:12:38;99411.59;;;5.25;56.75
6506;BME280;3286;49.858;8.768;2023-04-27T04:15:07;99410.41;;;5.53;55.76
6506;BME280;3286;49.858;8.768;2023-04-27T04:17:34;99408.59;;;6.02;54.91
6506;BME280;3286;49.858;8.768;2023-04-27T04:20:00;99413.94;;;5.65;55.73
6506;BME280;3286;49.858;8.768;2023-04-27T04:22:28;99411.34;;;5.76;55.75
6506;BME280;3286;49.858;8.768;2023-04-27T04:24:55;99402.75;;;6.10;55.31
6506;BME280;3286;49.858;8.768;2023-04-27T04:27:21;99403.13;;;6.28;54.92
6506;BME280;3286;49.858;8.768;2023-04-27T04:29:48;99392.91;;;6.36;54.86
6506;BME280;3286;49.858;8.768;2023-04-27T04:32:16;99399.44;;;5.84;56.20
6506;BME280;3286;49.858;8.768;2023-04-27T04:34:47;99392.28;;;6.21;55.63
6506;BME280;3286;49.858;8.768;2023-04-27T04:37:15;99395.97;;;6.19;56.32
6506;BME280;3286;49.858;8.768;2023-04-27T04:39:42;99397.06;;;6.39;55.67
6506;BME280;3286;49.858;8.768;2023-04-27T04:42:09;99395.16;;;6.41;56.01
6506;BME280;3286;49.858;8.768;2023-04-27T04:44:35;99396.25;;;6.38;56.08
6506;BME280;3286;49.858;8.768;2023-04-27T04:47:03;99395.63;;;6.80;55.17
6506;BME280;3286;49.858;8.768;2023-04-27T04:49:31;99392.63;;;6.96;54.61
6506;BME280;3286;49.858;8.768;2023-04-27T04:51:57;99398.50;;;6.66;55.55
6506;BME280;3286;49.858;8.768;2023-04-27T04:54:24;99396.81;;;6.42;56.82
6506;BME280;3286;49.858;8.768;2023-04-27T04:56:50;99395.13;;;6.87;55.74
6506;BME280;3286;49.858;8.768;2023-04-27T04:59:17;99400.75;;;7.37;54.46
6506;BME280;3286;49.858;8.768;2023-04-27T05:01:44;99408.81;;;7.13;53.53
6506;BME280;3286;49.858;8.768;2023-04-27T05:04:10;99410.41;;;7.37;52.61
6506;BME280;3286;49.858;8.768;2023-04-27T05:06:38;99407.75;;;6.93;54.04
6506;BME280;3286;49.858;8.768;2023-04-27T05:09:05;99421.75;;;6.93;54.43
6506;BME280;3286;49.858;8.768;2023-04-27T05:11:32;99411.84;;;6.86;54.79
6506;BME280;3286;49.858;8.768;2023-04-27T05:13:58;99421.63;;;6.84;55.48
6506;BME280;3286;49.858;8.768;2023-04-27T05:16:25;99417.69;;;6.89;54.79
6506;BME280;3286;49.858;8.768;2023-04-27T05:18:52;99420.06;;;6.92;55.25
6506;BME280;3286;49.858;8.768;2023-04-27T05:21:19;99414.78;;;7.15;54.27
6506;BME280;3286;49.858;8.768;2023-04-27T05:23:47;99425.94;;;6.85;55.35
6506;BME280;3286;49.858;8.768;2023-04-27T05:26:15;99430.31;;;7.18;54.45
6506;BME280;3286;49.858;8.768;2023-04-27T05:28:42;99429.53;;;7.39;53.04
6506;BME280;3286;49.858;8.768;2023-04-27T05:31:09;99425.41;;;7.14;54.03
6506;BME280;3286;49.858;8.768;2023-04-27T05:33:36;99431.84;;;7.21;53.48
6506;BME280;3286;49.858;8.768;2023-04-27T05:36:03;99434.13;;;7.25;53.49
6506;BME280;3286;49.858;8.768;2023-04-27T05:38:29;99445.44;;;7.37;53.42
6506;BME280;3286;49.858;8.768;2023-04-27T05:40:59;99448.19;;;7.36;53.17
6506;BME280;3286;49.858;8.768;2023-04-27T05:43:25;99451.94;;;7.54;53.10
6506;BME280;3286;49.858;8.768;2023-04-27T05:45:52;99445.72;;;7.88;51.93
6506;BME280;3286;49.858;8.768;2023-04-27T05:48:19;99450.78;;;7.80;52.38
6506;BME280;3286;49.858;8.768;2023-04-27T05:50:45;99449.59;;;8.05;52.02
6506;BME280;3286;49.858;8.768;2023-04-27T05:53:12;99451.09;;;8.08;51.90
6506;BME280;3286;49.858;8.768;2023-04-27T05:55:38;99444.31;;;8.05;51.71
6506;BME280;3286;49.858;8.768;2023-04-27T05:58:06;99444.84;;;8.20;51.96
6506;BME280;3286;49.858;8.768;2023-04-27T06:00:33;99446.06;;;8.37;51.40
6506;BME280;3286;49.858;8.768;2023-04-27T06:03:00;99454.19;;;8.13;51.78
6506;BME280;3286;49.858;8.768;2023-04-27T06:05:27;99452.47;;;8.45;50.96
6506;BME280;3286;49.858;8.768;2023-04-27T06:07:54;99446.22;;;8.67;49.92
6506;BME280;3286;49.858;8.768;2023-04-27T06:10:20;99455.16;;;8.54;51.27
6506;BME280;3286;49.858;8.768;2023-04-27T06:12:47;99458.50;;;8.88;49.71
6506;BME280;3286;49.858;8.768;2023-04-27T06:15:15;99459.06;;;8.91;49.35
6506;BME280;3286;49.858;8.768;2023-04-27T06:17:42;99468.00;;;9.10;48.18
6506;BME280;3286;49.858;8.768;2023-04-27T06:20:10;99463.47;;;9.32;47.02
6506;BME280;3286;49.858;8.768;2023-04-27T06:22:38;99464.75;;;9.57;46.82
6506;BME280;3286;49.858;8.768;2023-04-27T06:25:05;99469.44;;;9.34;47.09
6506;BME280;3286;49.858;8.768;2023-04-27T06:27:32;99465.97;;;9.33;46.50
6506;BME280;3286;49.858;8.768;2023-04-27T06:30:02;99470.09;;;9.16;47.90
6506;BME280;3286;49.858;8.768;2023-04-27T06:32:30;99466.16;;;10.00;45.61
6506;BME280;3286;49.858;8.768;2023-04-27T06:34:57;99473.06;;;9.52;46.80
6506;BME280;3286;49.858;8.768;2023-04-27T06:37:23;99476.44;;;9.74;45.97
6506;BME280;3286;49.858;8.768;2023-04-27T06:39:50;99473.22;;;9.41;47.62
6506;BME280;3286;49.858;8.768;2023-04-27T06:42:17;99484.34;;;9.04;46.99
6506;BME280;3286;49.858;8.768;2023-04-27T06:44:43;99474.19;;;9.50;46.64
6506;BME280;3286;49.858;8.768;2023-04-27T06:47:10;99472.00;;;9.94;44.36
6506;BME280;3286;49.858;8.768;2023-04-27T06:49:39;99473.50;;;10.17;44.54
6506;BME280;3286;49.858;8.768;2023-04-27T06:52:05;99476.69;;;11.15;43.26
6506;BME280;3286;49.858;8.768;2023-04-27T06:54:32;99472.59;;;11.49;42.94
6506;BME280;3286;49.858;8.768;2023-04-27T06:56:58;99472.59;;;11.49;42.63
6506;BME280;3286;49.858;8.768;2023-04-27T06:59:26;99476.91;;;11.50;41.74
6506;BME280;3286;49.858;8.768;2023-04-27T07:01:52;99464.50;;;11.33;42.21
6506;BME280;3286;49.858;8.768;2023-04-27T07:04:19;99467.94;;;11.79;41.91
6506;BME280;3286;49.858;8.768;2023-04-27T07:06:47;99467.63;;;11.64;41.57
6506;BME280;3286;49.858;8.768;2023-04-27T07:09:13;99472.28;;;11.34;40.53
6506;BME280;3286;49.858;8.768;2023-04-27T07:11:40;99467.19;;;11.69;40.41
6506;BME280;3286;49.858;8.768;2023-04-27T07:14:07;99470.88;;;12.12;38.98
6506;BME280;3286;49.858;8.768;2023-04-27T07:16:33;99474.28;;;11.68;39.20
6506;BME280;3286;49.858;8.768;2023-04-27T07:19:00;99480.69;;;11.48;40.08
6506;BME280;3286;49.858;8.768;2023-04-27T07:21:27;99476.53;;;11.17;39.01
6506;BME280;3286;49.858;8.768;2023-04-27T07:23:55;99480.16;;;11.16;38.71
6506;BME280;3286;49.858;8.768;2023-04-27T07:26:21;99483.47;;;12.37;37.91
6506;BME280;3286;49.858;8.768;2023-04-27T07:28:49;99486.50;;;12.42;37.45
6506;BME280;3286;49.858;8.768;2023-04-27T07:31:16;99484.91;;;12.31;37.19
6506;BME280;3286;49.858;8.768;2023-04-27T07:33:43;99475.22;;;12.40;36.97
6506;BME280;3286;49.858;8.768;2023-04-27T07:36:09;99475.09;;;12.23;37.22
6506;BME280;3286;49.858;8.768;2023-04-27T07:38:36;99476.22;;;12.73;36.52
6506;BME280;3286;49.858;8.768;2023-04-27T07:41:04;99477.34;;;12.97;36.17
6506;BME280;3286;49.858;8.768;2023-04-27T07:43:31;99467.63;;;12.71;36.91
6506;BME280;3286;49.858;8.768;2023-04-27T07:45:58;99469.53;;;13.30;35.58
6506;BME280;3286;49.858;8.768;2023-04-27T07:48:24;99469.13;;;13.17;36.31
6506;BME280;3286;49.858;8.768;2023-04-27T07:50:52;99469.47;;;13.22;36.95
6506;BME280;3286;49.858;8.768;2023-04-27T07:53:19;99471.13;;;13.74;34.48
6506;BME280;3286;49.858;8.768;2023-04-27T07:55:47;99470.00;;;13.34;35.61
6506;BME280;3286;49.858;8.768;2023-04-27T07:58:15;99464.81;;;13.75;34.03
6506;BME280;3286;49.858;8.768;2023-04-27T08:00:41;99465.66;;;13.84;34.42
6506;BME280;3286;49.858;8.768;2023-04-27T08:03:08;99468.78;;;13.80;34.82
6506;BME280;3286;49.858;8.768;2023-04-27T08:05:35;99460.66;;;14.23;33.50
6506;BME280;3286;49.858;8.768;2023-04-27T08:08:01;99460.16;;;13.61;35.03
6506;BME280;3286;49.858;8.768;2023-04-27T08:10:28;99468.13;;;13.61;34.53
6506;BME280;3286;49.858;8.768;2023-04-27T08:12:54;99469.66;;;14.13;36.15
6506;BME280;3286;49.858;8.768;2023-04-27T08:15:22;99468.13;;;14.36;34.21
6506;BME280;3286;49.858;8.768;2023-04-27T08:17:49;99459.31;;;14.35;34.70
6506;BME280;3286;49.858;8.768;2023-04-27T08:20:15;99450.81;;;14.48;33.68
6506;BME280;3286;49.858;8.768;2023-04-27T08:22:42;99453.69;;;14.22;34.73
6506;BME280;3286;49.858;8.768;2023-04-27T08:25:09;99448.66;;;14.52;34.08
6506;BME280;3286;49.858;8.768;2023-04-27T08:27:36;99443.06;;;14.95;33.58
6506;BME280;3286;49.858;8.768;2023-04-27T08:30:04;99445.91;;;14.85;32.99
6506;BME280;3286;49.858;8.768;2023-04-27T08:32:32;99444.47;;;15.14;32.30
6506;BME280;3286;49.858;8.768;2023-04-27T08:34:59;99454.47;;;15.12;32.86
6506;BME280;3286;49.858;8.768;2023-04-27T08:37:25;99447.72;;;14.28;32.42
6506;BME280;3286;49.858;8.768;2023-04-27T08:39:52;99442.81;;;15.13;32.71
6506;BME280;3286;49.858;8.768;2023-04-27T08:42:18;99432.88;;;15.06;32.08
6506;BME280;3286;49.858;8.768;2023-04-27T08:44:45;99433.47;;;15.72;32.84
6506;BME280;3286;49.858;8.768;2023-04-27T08:47:12;99440.91;;;16.38;30.71
6506;BME280;3286;49.858;8.768;2023-04-27T08:49:40;99436.75;;;16.20;31.31
6506;BME280;3286;49.858;8.768;2023-04-27T08:52:10;99433.22;;;15.58;31.23
6506;BME280;3286;49.858;8.768;2023-04-27T08:54:37;99431.97;;;16.31;31.27
6506;BME280;3286;49.858;8.768;2023-04-27T08:57:08;99441.63;;;16.32;31.08
6506;BME280;3286;49.858;8.768;2023-04-27T08:59:34;99433.75;;;15.77;31.84
6506;BME280;3286;49.858;8.768;2023-04-27T09:02:02;99435.28;;;16.33;30.73
6506;BME280;3286;49.858;8.768;2023-04-27T09:04:35;99439.00;;;16.77;31.03
6506;BME280;3286;49.858;8.768;2023-04-27T09:07:10;99438.41;;;16.66;30.00
6506;BME280;3286;49.858;8.768;2023-04-27T09:09:37;99441.06;;;16.97;29.69
6506;BME280;3286;49.858;8.768;2023-04-27T09:12:13;99443.00;;;17.18;29.68
6506;BME280;3286;49.858;8.768;2023-04-27T09:14:40;99442.69;;;16.76;30.38
6506;BME280;3286;49.858;8.768;2023-04-27T09:17:07;99440.41;;;17.25;28.94
6506;BME280;3286;49.858;8.768;2023-04-27T09:19:34;99426.94;;;17.33;29.12
6506;BME280;3286;49.858;8.768;2023-04-27T09:22:04;99428.16;;;18.17;29.25
6506;BME280;3286;49.858;8.768;2023-04-27T09:24:33;99424.34;;;17.03;29.40
6506;BME280;3286;49.858;8.768;2023-04-27T09:27:00;99421.34;;;17.49;28.03
6506;BME280;3286;49.858;8.768;2023-04-27T09:29:34;99420.09;;;17.45;29.54
6506;BME280;3286;49.858;8.768;2023-04-27T09:32:02;99418.59;;;17.21;28.15
6506;BME280;3286;49.858;8.768;2023-04-27T09:34:40;99416.06;;;18.28;27.64
6506;BME280;3286;49.858;8.768;2023-04-27T09:37:06;99419.00;;;17.61;28.54
6506;BME280;3286;49.858;8.768;2023-04-27T09:39:35;99426.63;;;17.06;28.31
6506;BME280;3286;49.858;8.768;2023-04-27T09:42:02;99410.94;;;17.33;28.78
6506;BME280;3286;49.858;8.768;2023-04-27T09:44:30;99414.50;;;16.43;28.66
6506;BME280;3286;49.858;8.768;2023-04-27T09:46:57;99411.31;;;17.73;27.12
6506;BME280;3286;49.858;8.768;2023-04-27T09:49:25;99405.34;;;17.49;27.23
6506;BME280;3286;49.858;8.768;2023-04-27T09:51:54;99403.06;;;18.18;28.08
6506;BME280;3286;49.858;8.768;2023-04-27T09:54:23;99403.72;;;17.99;27.39
6506;BME280;3286;49.858;8.768;2023-04-27T09:56:59;99401.13;;;18.05;26.04
6506;BME280;3286;49.858;8.768;2023-04-27T09:59:39;99399.53;;;18.46;27.83
6506;BME280;3286;49.858;8.768;2023-04-27T10:02:10;99397.50;;;17.91;27.06
6506;BME280;3286;49.858;8.768;2023-04-27T10:04:52;99403.38;;;18.37;26.75
6506;BME280;3286;49.858;8.768;2023-04-27T10:07:25;99380.47;;;19.05;25.92
6506;BME280;3286;49.858;8.768;2023-04-27T10:09:52;99388.41;;;18.43;26.67
6506;BME280;3286;49.858;8.768;2023-04-27T10:12:22;99399.13;;;17.05;27.86
6506;BME280;3286;49.858;8.768;2023-04-27T10:14:52;99403.06;;;15.43;32.15
6506;BME280;3286;49.858;8.768;2023-04-27T10:17:24;99403.59;;;17.20;29.29
6506;BME280;3286;49.858;8.768;2023-04-27T10:19:52;99399.03;;;17.14;29.71
6506;BME280;3286;49.858;8.768;2023-04-27T10:22:20;99394.78;;;18.42;26.68
6506;BME280;3286;49.858;8.768;2023-04-27T10:24:48;99383.31;;;18.54;27.68
6506;BME280;3286;49.858;8.768;2023-04-27T10:27:16;99392.91;;;17.85;27.78
6506;BME280;3286;49.858;8.768;2023-04-27T10:29:46;99387.34;;;18.79;27.66
6506;BME280;3286;49.858;8.768;2023-04-27T10:32:18;99384.66;;;18.37;26.60
6506;BME280;3286;49.858;8.768;2023-04-27T10:34:46;99385.69;;;19.27;25.87
6506;BME280;3286;49.858;8.768;2023-04-27T10:37:14;99380.13;;;20.36;24.75
6506;BME280;3286;49.858;8.768;2023-04-27T10:39:42;99377.56;;;21.13;23.93
6506;BME280;3286;49.858;8.768;2023-04-27T10:42:09;99371.84;;;21.35;24.84
6506;BME280;3286;49.858;8.768;2023-04-27T10:44:37;99376.03;;;20.92;24.77
6506;BME280;3286;49.858;8.768;2023-04-27T10:47:15;99372.81;;;20.56;25.27
6506;BME280;3286;49.858;8.768;2023-04-27T10:49:44;99376.84;;;19.73;24.57
6506;BME280;3286;49.858;8.768;2023-04-27T10:52:10;99367.38;;;19.91;25.28
6506;BME280;3286;49.858;8.768;2023-04-27T10:54:37;99362.63;;;19.66;25.27
6506;BME280;3286;49.858;8.768;2023-04-27T10:57:06;99376.00;;;18.35;26.22
6506;BME280;3286;49.858;8.768;2023-04-27T10:59:34;99370.84;;;19.31;28.30
6506;BME280;3286;49.858;8.768;2023-04-27T11:02:01;99375.22;;;18.90;26.62
6506;BME280;3286;49.858;8.768;2023-04-27T11:04:37;99368.16;;;18.27;27.56
6506;BME280;3286;49.858;8.768;2023-04-27T11:07:04;99366.00;;;17.87;29.28
6506;BME280;3286;49.858;8.768;2023-04-27T11:09:33;99365.09;;;20.08;26.89
6506;BME280;3286;49.858;8.768;2023-04-27T11:12:00;99363.47;;;20.79;24.37
6506;BME280;3286;49.858;8.768;2023-04-27T11:14:27;99356.66;;;18.33;26.29
6506;BME280;3286;49.858;8.768;2023-04-27T11:16:54;99363.78;;;16.21;29.55
6506;BME280;3286;49.858;8.768;2023-04-27T11:19:21;99352.50;;;18.65;27.41
6506;BME280;3286;49.858;8.768;2023-04-27T11:21:49;99359.31;;;19.50;27.21
6506;BME280;3286;49.858;8.768;2023-04-27T11:24:15;99341.03;;;21.06;25.57
6506;BME280;3286;49.858;8.768;2023-04-27T11:26:42;99345.38;;;21.39;24.47
6506;BME280;3286;49.858;8.768;2023-04-27T11:29:09;99350.44;;;20.17;25.40
6506;BME280;3286;49.858;8.768;2023-04-27T11:31:39;99352.31;;;20.17;26.16
6506;BME280;3286;49.858;8.768;2023-04-27T11:34:08;99339.53;;;21.74;23.91
6506;BME280;3286;49.858;8.768;2023-04-27T11:36:34;99342.06;;;22.32;23.30
6506;BME280;3286;49.858;8.768;2023-04-27T11:39:03;99336.38;;;22.40;23.58
6506;BME280;3286;49.858;8.768;2023-04-27T11:41:32;99334.75;;;22.57;23.63
6506;BME280;3286;49.858;8.768;2023-04-27T11:44:03;99330.00;;;23.02;23.48
6506;BME280;3286;49.858;8.768;2023-04-27T11:49:00;99332.16;;;21.63;24.59
6506;BME280;3286;49.858;8.768;2023-04-27T11:51:28;99324.47;;;20.70;24.79
6506;BME280;3286;49.858;8.768;2023-04-27T11:53:55;99332.63;;;20.36;25.64
6506;BME280;3286;49.858;8.768;2023-04-27T11:56:34;99325.75;;;21.89;24.03
6506;BME280;3286;49.858;8.768;2023-04-27T11:59:01;99314.78;;;22.65;23.78
6506;BME280;3286;49.858;8.768;2023-04-27T12:01:29;99319.28;;;22.53;23.98
6506;BME280;3286;49.858;8.768;2023-04-27T12:03:56;99307.44;;;22.72;24.56
6506;BME280;3286;49.858;8.768;2023-04-27T12:06:24;99312.25;;;22.52;24.90
6506;BME280;3286;49.858;8.768;2023-04-27T12:08:51;99310.81;;;23.41;24.04
6506;BME280;3286;49.858;8.768;2023-04-27T12:11:18;99302.63;;;23.59;23.73
6506;BME280;3286;49.858;8.768;2023-04-27T12:13:46;99296.06;;;23.79;22.68
6506;BME280;3286;49.858;8.768;2023-04-27T12:16:13;99302.03;;;23.34;21.42
6506;BME280;3286;49.858;8.768;2023-04-27T12:18:39;99298.41;;;23.87;22.55
6506;BME280;3286;49.858;8.768;2023-04-27T12:21:06;99294.88;;;24.23;21.97
6506;BME280;3286;49.858;8.768;2023-04-27T12:23:34;99289.94;;;24.20;21.15
6506;BME280;3286;49.858;8.768;2023-04-27T12:26:01;99294.19;;;23.56;22.72
6506;BME280;3286;49.858;8.768;2023-04-27T12:28:28;99286.00;;;23.20;23.01
6506;BME280;3286;49.858;8.768;2023-04-27T12:30:56;99275.22;;;22.66;22.50
6506;BME280;3286;49.858;8.768;2023-04-27T12:33:22;99280.03;;;23.06;22.59
6506;BME280;3286;49.858;8.768;2023-04-27T12:35:49;99277.13;;;23.20;23.39
6506;BME280;3286;49.858;8.768;2023-04-27T12:38:16;99273.13;;;23.22;22.47
6506;BME280;3286;49.858;8.768;2023-04-27T12:40:42;99272.50;;;23.39;22.29
6506;BME280;3286;49.858;8.768;2023-04-27T12:43:09;99273.34;;;23.09;20.89
6506;BME280;3286;49.858;8.768;2023-04-27T12:45:37;99276.94;;;20.32;24.57
6506;BME280;3286;49.858;8.768;2023-04-27T12:48:05;99273.75;;;22.14;22.80
6506;BME280;3286;49.858;8.768;2023-04-27T12:50:32;99262.44;;;22.42;22.16
6506;BME280;3286;49.858;8.768;2023-04-27T12:52:59;99269.06;;;22.47;22.37
6506;BME280;3286;49.858;8.768;2023-04-27T12:55:26;99268.03;;;23.44;23.90
6506;BME280;3286;49.858;8.768;2023-04-27T12:57:52;99260.53;;;22.50;23.45
6506;BME280;3286;49.858;8.768;2023-04-27T13:00:19;99256.09;;;23.28;24.67
6506;BME280;3286;49.858;8.768;2023-04-27T13:02:46;99252.47;;;22.92;22.12
6506;BME280;3286;49.858;8.768;2023-04-27T13:05:14;99252.97;;;22.70;23.16
6506;BME280;3286;49.858;8.768;2023-04-27T13:07:41;99254.22;;;22.86;23.95
6506;BME280;3286;49.858;8.768;2023-04-27T13:10:08;99254.44;;;23.87;23.11
6506;BME280;3286;49.858;8.768;2023-04-27T13:12:35;99244.13;;;24.37;22.76
6506;BME280;3286;49.858;8.768;2023-04-27T13:15:03;99250.91;;;21.86;22.55
6506;BME280;3286;49.858;8.768;2023-04-27T13:17:29;99248.22;;;22.84;23.87
6506;BME280;3286;49.858;8.768;2023-04-27T13:19:56;99242.72;;;23.34;24.03
6506;BME280;3286;49.858;8.768;2023-04-27T13:22:24;99244.56;;;22.79;22.97
6506;BME280;3286;49.858;8.768;2023-04-27T13:24:50;99249.28;;;23.73;22.63
6506;BME280;3286;49.858;8.768;2023-04-27T13:27:17;99237.59;;;24.21;22.34
6506;BME280;3286;49.858;8.768;2023-04-27T13:29:44;99235.97;;;24.20;21.48